Time;durP1;ratioP1;P1;durP2;ratioP2;P2;SDS_P1;SDS_P2;PMS_P1;PMS_P2;Temp;Humidity;BMP_temperature;BMP_pressure;BME280_temperature;BME280_humidity;BME280_pressure;Samples;Min_cycle;Max_cycle;Signal;HPM_P1;HPM_P2
2022/04/03 00:01:58;;;;;;;;;;;;;;;21.98;26.28;95355.50;10498622;28;1906;-73
2022/04/03 00:07:00;;;;;;;;;;;;;;;21.96;25.73;95348.94;10505263;28;1914;-74
2022/04/03 00:12:03;;;;;;;;;;;;;;;21.95;25.83;95364.00;10491805;28;1767;-74
2022/04/03 00:17:03;;;;;;;;;;;;;;;21.90;26.01;95358.81;10465016;28;2323;-74
2022/04/03 00:22:03;;;;;;;;;;;;;;;21.89;25.87;95357.25;10475237;28;2209;-74
2022/04/03 00:27:04;;;;;;;;;;;;;;;21.86;25.75;95366.50;10464866;28;1862;-73
2022/04/03 00:32:04;;;;;;;;;;;;;;;21.86;25.99;95363.13;10465646;28;1867;-74
2022/04/03 00:37:04;;;;;;;;;;;;;;;21.83;26.12;95371.59;10480840;28;1907;-74
2022/04/03 00:42:06;;;;;;;;;;;;;;;21.82;25.91;95373.44;10478781;28;1914;-73
2022/04/03 00:47:07;;;;;;;;;;;;;;;21.81;25.77;95371.06;10480038;28;1957;-74
2022/04/03 00:52:08;;;;;;;;;;;;;;;21.80;25.57;95377.44;10507847;28;1991;-74
2022/04/03 00:57:08;;;;;;;;;;;;;;;21.79;25.79;95374.00;10463678;28;1827;-73
2022/04/03 01:02:09;;;;;;;;;;;;;;;21.77;25.68;95372.72;10467340;28;1906;-72
2022/04/03 01:07:10;;;;;;;;;;;;;;;21.77;25.66;95378.00;10484888;28;1957;-73
2022/04/03 01:12:11;;;;;;;;;;;;;;;21.74;25.68;95376.72;10509218;28;2023;-73
2022/04/03 01:17:13;;;;;;;;;;;;;;;21.73;25.52;95367.25;10494787;28;2015;-72
2022/04/03 01:22:14;;;;;;;;;;;;;;;21.75;25.78;95369.59;10461118;28;1973;-73
2022/04/03 01:27:15;;;;;;;;;;;;;;;21.71;25.73;95374.69;10475803;28;2013;-72
2022/04/03 01:32:16;;;;;;;;;;;;;;;21.70;25.80;95373.09;10474018;28;1945;-71
2022/04/03 01:37:17;;;;;;;;;;;;;;;21.71;25.49;95387.88;10492009;28;2056;-73
2022/04/03 01:42:17;;;;;;;;;;;;;;;21.70;25.64;95382.88;10505914;28;2139;-75
2022/04/03 01:47:18;;;;;;;;;;;;;;;21.69;25.49;95392.66;10459940;28;2099;-73
2022/04/03 01:52:19;;;;;;;;;;;;;;;21.67;25.55;95394.00;10475885;28;2011;-72
2022/04/03 01:57:19;;;;;;;;;;;;;;;21.66;25.42;95392.41;10490945;28;2001;-72
2022/04/03 02:02:19;;;;;;;;;;;;;;;21.67;25.48;95397.44;10458499;28;1971;-72
2022/04/03 02:07:19;;;;;;;;;;;;;;;21.65;25.44;95390.88;10509791;23;2579;-53
2022/04/03 02:12:20;;;;;;;;;;;;;;;21.63;25.44;95403.56;10508596;28;2035;-52
2022/04/03 02:17:20;;;;;;;;;;;;;;;21.64;25.71;95405.91;10530340;22;3626;-58
2022/04/03 02:22:20;;;;;;;;;;;;;;;21.64;25.64;95402.47;10516454;28;2010;-57
2022/04/03 02:27:21;;;;;;;;;;;;;;;21.63;25.62;95406.19;10519640;28;2006;-58
2022/04/03 02:32:21;;;;;;;;;;;;;;;21.63;25.70;95408.84;10520605;28;1901;-58
2022/04/03 02:37:21;;;;;;;;;;;;;;;21.63;25.62;95411.47;10506287;28;1978;-58
2022/04/03 02:42:22;;;;;;;;;;;;;;;21.62;25.51;95417.81;10519638;28;1939;-57
2022/04/03 02:47:22;;;;;;;;;;;;;;;21.61;25.69;95411.78;10501978;28;2217;-58
2022/04/03 02:52:22;;;;;;;;;;;;;;;21.60;25.52;95414.69;10519956;28;1995;-57
2022/04/03 02:57:23;;;;;;;;;;;;;;;21.59;25.66;95415.75;10515183;28;1895;-57
2022/04/03 03:02:23;;;;;;;;;;;;;;;21.60;25.79;95425.22;10517901;28;1927;-55
2022/04/03 03:07:26;;;;;;;;;;;;;;;21.62;25.60;95428.38;10516255;28;1964;-57
2022/04/03 03:12:26;;;;;;;;;;;;;;;21.60;25.58;95425.22;10486414;28;1949;-57
2022/04/03 03:17:27;;;;;;;;;;;;;;;21.58;25.54;95427.38;10504909;28;2135;-56
2022/04/03 03:22:27;;;;;;;;;;;;;;;21.55;25.60;95427.97;10518897;28;2159;-57
2022/04/03 03:27:28;;;;;;;;;;;;;;;21.55;25.68;95433.22;10500656;28;2003;-56
2022/04/03 03:32:29;;;;;;;;;;;;;;;21.56;25.31;95435.56;10514852;28;1985;-54
2022/04/03 03:37:29;;;;;;;;;;;;;;;21.57;25.47;95444.28;10498371;28;1944;-56
2022/04/03 03:42:30;;;;;;;;;;;;;;;21.53;25.51;95441.44;10520166;28;1949;-56
2022/04/03 03:47:31;;;;;;;;;;;;;;;21.56;25.40;95448.75;10517276;28;1811;-56
2022/04/03 03:52:31;;;;;;;;;;;;;;;21.55;25.17;95444.56;10499242;28;1779;-54
2022/04/03 03:57:32;;;;;;;;;;;;;;;21.52;25.39;95447.78;10520869;28;1923;-54
2022/04/03 04:02:32;;;;;;;;;;;;;;;21.52;25.46;95454.88;10495665;28;1910;-58
2022/04/03 04:07:42;;;;;;;;;;;;;;;21.54;25.61;95463.31;10488859;28;1807;-55
2022/04/03 04:12:43;;;;;;;;;;;;;;;21.51;25.36;95462.03;10518479;28;1924;-57
2022/04/03 04:17:44;;;;;;;;;;;;;;;21.50;25.36;95462.31;10514933;28;1762;-54
2022/04/03 04:22:45;;;;;;;;;;;;;;;21.53;25.12;95470.44;10495423;28;1906;-57
2022/04/03 04:27:45;;;;;;;;;;;;;;;21.56;25.38;95477.78;10497541;28;1837;-57
2022/04/03 04:32:47;;;;;;;;;;;;;;;21.55;25.14;95473.59;10497328;28;2158;-55
2022/04/03 04:37:47;;;;;;;;;;;;;;;21.55;25.23;95473.59;10480526;28;1833;-57
2022/04/03 04:42:49;;;;;;;;;;;;;;;21.52;25.26;95483.91;10522693;28;1967;-57
2022/04/03 04:47:50;;;;;;;;;;;;;;;21.55;25.07;95485.97;10512491;28;2015;-56
2022/04/03 04:52:51;;;;;;;;;;;;;;;21.52;24.99;95492.59;10522072;28;1972;-57
2022/04/03 04:57:53;;;;;;;;;;;;;;;21.53;25.04;95506.59;10508384;28;1997;-58
2022/04/03 05:02:56;;;;;;;;;;;;;;;21.54;25.07;95500.22;10519053;28;1920;-56
2022/04/03 05:07:57;;;;;;;;;;;;;;;21.53;25.12;95503.94;10497019;28;1885;-56
2022/04/03 05:12:58;;;;;;;;;;;;;;;21.55;24.90;95512.34;10494661;28;1813;-57
2022/04/03 05:17:58;;;;;;;;;;;;;;;21.54;24.93;95506.28;10494767;28;1827;-58
2022/04/03 05:22:59;;;;;;;;;;;;;;;21.49;25.23;95521.41;10491447;28;2013;-57
2022/04/03 05:27:59;;;;;;;;;;;;;;;21.54;24.86;95526.59;10496225;28;1969;-57
2022/04/03 05:32:59;;;;;;;;;;;;;;;21.47;25.37;95526.97;10498773;28;1936;-58
2022/04/03 05:38:00;;;;;;;;;;;;;;;21.47;25.41;95537.53;10498566;28;1825;-57
2022/04/03 05:43:00;;;;;;;;;;;;;;;21.49;25.36;95539.88;10512023;28;1982;-57
2022/04/03 05:48:02;;;;;;;;;;;;;;;21.50;25.15;95539.56;10512177;28;2015;-59
2022/04/03 05:53:02;;;;;;;;;;;;;;;21.54;25.20;95550.34;10515119;28;1840;-58
2022/04/03 05:58:02;;;;;;;;;;;;;;;21.49;25.58;95553.84;10513888;28;1908;-58
2022/04/03 06:03:03;;;;;;;;;;;;;;;21.48;25.50;95556.75;10515051;28;1966;-58
2022/04/03 06:08:03;;;;;;;;;;;;;;;21.52;25.54;95558.53;10518932;28;1924;-56
2022/04/03 06:13:05;;;;;;;;;;;;;;;21.50;25.34;95563.31;10503750;28;1926;-57
2022/04/03 06:18:06;;;;;;;;;;;;;;;21.48;25.50;95569.94;10507176;28;1943;-56
2022/04/03 06:23:10;;;;;;;;;;;;;;;21.49;25.30;95574.16;10515129;28;2069;-55
2022/04/03 06:28:11;;;;;;;;;;;;;;;21.48;25.43;95572.56;10497215;28;2082;-57
2022/04/03 06:33:11;;;;;;;;;;;;;;;21.48;25.55;95585.75;10518283;28;1799;-56
2022/04/03 06:38:13;;;;;;;;;;;;;;;21.44;25.66;95590.81;10522749;28;1896;-57
2022/04/03 06:43:15;;;;;;;;;;;;;;;21.45;25.68;95591.59;10508246;28;2008;-57
2022/04/03 06:48:15;;;;;;;;;;;;;;;21.44;25.42;95601.38;10520143;28;1953;-59
2022/04/03 06:53:15;;;;;;;;;;;;;;;21.47;25.33;95614.00;10509874;28;1916;-57
2022/04/03 06:58:16;;;;;;;;;;;;;;;21.45;25.51;95607.44;10505442;28;1816;-58
2022/04/03 07:03:16;;;;;;;;;;;;;;;21.45;25.56;95613.47;10504662;28;2047;-57
2022/04/03 07:08:16;;;;;;;;;;;;;;;21.39;25.24;95613.84;10500821;28;2010;-58
2022/04/03 07:13:19;;;;;;;;;;;;;;;21.43;25.57;95625.38;10519561;28;1833;-57
2022/04/03 07:18:19;;;;;;;;;;;;;;;21.39;25.56;95619.09;10510761;28;1986;-56
2022/04/03 07:23:22;;;;;;;;;;;;;;;21.42;25.48;95626.44;10505340;28;1910;-57
2022/04/03 07:28:22;;;;;;;;;;;;;;;21.43;25.55;95630.66;10518480;28;2036;-55
2022/04/03 07:33:24;;;;;;;;;;;;;;;21.41;25.63;95638.06;10522694;28;2081;-57
2022/04/03 07:38:24;;;;;;;;;;;;;;;21.41;25.53;95638.84;10500990;28;1785;-57
2022/04/03 07:43:26;;;;;;;;;;;;;;;21.39;25.38;95646.25;10500333;28;1894;-55
2022/04/03 07:48:27;;;;;;;;;;;;;;;21.40;25.50;95655.72;10498264;28;1773;-57
2022/04/03 07:53:27;;;;;;;;;;;;;;;21.38;25.42;95657.88;10495865;28;2123;-56
2022/04/03 07:58:28;;;;;;;;;;;;;;;21.42;25.23;95660.72;10521171;28;2041;-56
2022/04/03 08:03:28;;;;;;;;;;;;;;;21.36;25.52;95667.13;10502076;28;2015;-57
2022/04/03 08:08:28;;;;;;;;;;;;;;;21.44;25.43;95669.13;10498325;28;2041;-57
2022/04/03 08:13:29;;;;;;;;;;;;;;;21.37;25.38;95668.69;10488801;28;1919;-55
2022/04/03 08:18:29;;;;;;;;;;;;;;;21.38;25.43;95676.31;10493402;28;2080;-56
2022/04/03 08:23:29;;;;;;;;;;;;;;;21.40;25.19;95679.47;10496474;28;2010;-57
2022/04/03 08:28:31;;;;;;;;;;;;;;;21.42;25.23;95684.44;10507513;28;1939;-57
2022/04/03 08:33:32;;;;;;;;;;;;;;;21.43;25.57;95689.44;10486819;28;1851;-55
2022/04/03 08:38:33;;;;;;;;;;;;;;;21.43;25.59;95693.94;10535195;22;2522;-72
2022/04/03 08:43:33;;;;;;;;;;;;;;;21.45;26.01;95694.47;10539585;28;1967;-71
2022/04/03 08:48:34;;;;;;;;;;;;;;;21.49;26.52;95703.38;10555477;28;1890;-71
2022/04/03 08:53:35;;;;;;;;;;;;;;;21.49;26.85;95703.38;10543821;27;1986;-69
2022/04/03 08:58:35;;;;;;;;;;;;;;;21.50;26.76;95710.22;10541305;27;1848;-69
2022/04/03 09:03:35;;;;;;;;;;;;;;;21.56;27.15;95711.72;10547974;27;1905;-69
2022/04/03 09:08:36;;;;;;;;;;;;;;;21.54;26.94;95708.59;10560107;27;1872;-70
2022/04/03 09:13:36;;;;;;;;;;;;;;;21.55;26.80;95715.44;10534370;28;1998;-70
2022/04/03 09:18:47;;;;;;;;;;;;;;;21.58;27.14;95714.88;10538027;27;1856;-70
2022/04/03 09:23:57;;;;;;;;;;;;;;;21.54;27.33;95725.19;10550158;28;1965;-68
2022/04/03 09:29:07;;;;;;;;;;;;;;;21.54;26.97;95721.78;10552668;28;2273;-69
2022/04/03 09:34:07;;;;;;;;;;;;;;;21.48;26.86;95725.53;10550473;27;1855;-69
2022/04/03 09:39:09;;;;;;;;;;;;;;;21.48;26.59;95734.22;10537377;28;1910;-69
2022/04/03 09:44:17;;;;;;;;;;;;;;;21.47;26.56;95727.41;10552239;28;1770;-70
2022/04/03 09:49:21;;;;;;;;;;;;;;;21.45;26.89;95734.00;10546905;28;1841;-69
2022/04/03 09:54:22;;;;;;;;;;;;;;;21.45;26.70;95734.00;10545378;28;1843;-73
2022/04/03 09:59:23;;;;;;;;;;;;;;;21.42;26.90;95739.81;10533995;28;1968;-73
2022/04/03 10:04:24;;;;;;;;;;;;;;;21.49;27.52;95733.19;10530306;28;1793;-73
2022/04/03 10:09:26;;;;;;;;;;;;;;;21.51;27.10;95738.16;10527217;28;1877;-73
2022/04/03 10:14:27;;;;;;;;;;;;;;;21.47;27.23;95726.59;10548704;28;2010;-75
2022/04/03 10:19:28;;;;;;;;;;;;;;;21.46;27.11;95727.66;10558068;28;1918;-74
2022/04/03 10:24:30;;;;;;;;;;;;;;;21.43;27.33;95730.88;10552261;28;1810;-74
2022/04/03 10:29:34;;;;;;;;;;;;;;;21.42;27.47;95727.44;10533932;28;1822;-73
2022/04/03 10:34:45;;;;;;;;;;;;;;;21.42;27.09;95729.28;10540304;28;1462;-70
2022/04/03 10:39:46;;;;;;;;;;;;;;;21.38;27.32;95730.91;10551794;28;1973;-73
2022/04/03 10:45:05;;;;;;;;;;;;;;;21.35;27.40;95732.25;10551860;28;1904;-74
2022/04/03 10:50:07;;;;;;;;;;;;;;;21.34;27.41;95732.53;10569969;28;1825;-75
2022/04/03 10:55:11;;;;;;;;;;;;;;;21.35;27.61;95729.59;10559104;28;1842;-74
2022/04/03 11:00:12;;;;;;;;;;;;;;;21.37;27.84;95718.81;10545464;28;1906;-75
2022/04/03 11:05:21;;;;;;;;;;;;;;;21.38;28.16;95725.63;10558375;27;2300;-76
2022/04/03 11:10:40;;;;;;;;;;;;;;;21.38;28.32;95723.00;10553736;27;1942;-75
2022/04/03 11:15:49;;;;;;;;;;;;;;;21.40;28.43;95728.78;10561047;28;1845;-73
2022/04/03 11:20:55;;;;;;;;;;;;;;;21.37;28.13;95722.19;10547466;28;1919;-74
2022/04/03 11:25:56;;;;;;;;;;;;;;;21.35;28.23;95728.84;10542512;28;1882;-72
2022/04/03 11:30:56;;;;;;;;;;;;;;;21.35;28.09;95723.56;10519893;27;1948;-71
2022/04/03 11:36:03;;;;;;;;;;;;;;;21.32;28.00;95730.19;10556833;28;1857;-71
2022/04/03 11:41:05;;;;;;;;;;;;;;;21.33;28.08;95731.72;10559195;27;1951;-72
2022/04/03 11:46:05;;;;;;;;;;;;;;;21.38;27.89;95729.06;10545176;28;1833;-72
2022/04/03 11:51:24;;;;;;;;;;;;;;;21.38;28.23;95728.25;10541588;28;1833;-73
2022/04/03 11:56:25;;;;;;;;;;;;;;;21.36;27.95;95725.13;10535071;28;1789;-70
2022/04/03 12:01:30;;;;;;;;;;;;;;;21.38;27.93;95725.63;10537058;28;2056;-74
2022/04/03 12:06:31;;;;;;;;;;;;;;;21.39;28.01;95721.94;10558316;28;1792;-72
2022/04/03 12:11:32;;;;;;;;;;;;;;;21.37;28.08;95727.47;10535339;28;1971;-71
2022/04/03 12:16:33;;;;;;;;;;;;;;;21.37;27.90;95731.97;10562250;27;1880;-72
2022/04/03 12:21:37;;;;;;;;;;;;;;;21.36;27.83;95733.03;10539575;28;1971;-72
2022/04/03 12:26:38;;;;;;;;;;;;;;;21.35;28.50;95732.25;10560958;27;2070;-70
2022/04/03 12:31:38;;;;;;;;;;;;;;;21.35;28.79;95721.69;10535541;27;1877;-70
2022/04/03 12:36:46;;;;;;;;;;;;;;;21.36;29.00;95725.13;10563160;27;1867;-71
2022/04/03 12:41:47;;;;;;;;;;;;;;;21.37;28.96;95718.81;10538850;28;1882;-72
2022/04/03 12:46:47;;;;;;;;;;;;;;;21.38;29.22;95720.34;10553319;27;1921;-72
2022/04/03 12:51:47;;;;;;;;;;;;;;;21.39;29.55;95720.06;10531040;27;1880;-76
2022/04/03 13:02:07;;;;;;;;;;;;;;;21.38;29.29;95704.53;10556465;27;1893;-74
2022/04/03 13:07:10;;;;;;;;;;;;;;;21.37;29.72;95716.16;10528780;27;1852;-75
2022/04/03 13:12:10;;;;;;;;;;;;;;;21.37;29.72;95722.19;10549814;27;1891;-76
2022/04/03 13:17:12;;;;;;;;;;;;;;;21.37;30.03;95721.44;10560295;28;1519;-76
2022/04/03 13:22:12;;;;;;;;;;;;;;;21.36;30.20;95725.91;10544492;28;1981;-76
2022/04/03 13:27:12;;;;;;;;;;;;;;;21.35;30.30;95718.28;10551460;28;2021;-77
2022/04/03 13:32:13;;;;;;;;;;;;;;;21.35;30.56;95713.78;10552335;28;1878;-76
2022/04/03 13:37:14;;;;;;;;;;;;;;;21.32;30.79;95700.38;10567660;27;1979;-77
2022/04/03 13:42:15;;;;;;;;;;;;;;;21.33;30.83;95691.41;10541310;28;1959;-76
2022/04/03 13:47:15;;;;;;;;;;;;;;;21.33;31.04;95688.78;10548137;28;1853;-75
2022/04/03 13:52:15;;;;;;;;;;;;;;;21.32;31.34;95693.25;10548431;28;2450;-76
2022/04/03 13:57:15;;;;;;;;;;;;;;;21.33;31.44;95705.38;10544945;28;1939;-76
2022/04/03 14:02:17;;;;;;;;;;;;;;;21.34;32.46;95687.69;10566522;28;1963;-75
2022/04/03 14:07:17;;;;;;;;;;;;;;;21.38;31.96;95696.63;10581062;22;1966;-51
2022/04/03 14:12:17;;;;;;;;;;;;;;;21.37;32.22;95690.56;10513602;28;1954;-52
2022/04/03 14:17:18;;;;;;;;;;;;;;;21.37;31.88;95689.78;10511249;28;1956;-50
2022/04/03 14:22:18;;;;;;;;;;;;;;;21.34;31.99;95691.13;10497888;28;2009;-50
2022/04/03 14:27:18;;;;;;;;;;;;;;;21.37;32.35;95681.88;10488193;28;1845;-55
2022/04/03 14:32:19;;;;;;;;;;;;;;;21.36;32.62;95694.28;10495877;28;1861;-54
2022/04/03 14:37:19;;;;;;;;;;;;;;;21.38;32.24;95697.41;10497395;28;1847;-52
2022/04/03 14:42:20;;;;;;;;;;;;;;;21.36;32.34;95699.56;10510252;28;1966;-52
2022/04/03 14:47:20;;;;;;;;;;;;;;;21.36;32.64;95693.47;10506567;28;1866;-52
2022/04/03 14:52:21;;;;;;;;;;;;;;;21.36;32.60;95704.03;10510883;28;1862;-54
2022/04/03 14:57:22;;;;;;;;;;;;;;;21.34;32.47;95704.31;10510611;28;1912;-55
2022/04/03 15:02:22;;;;;;;;;;;;;;;21.33;32.58;95709.88;10503658;28;1909;-55
2022/04/03 15:07:23;;;;;;;;;;;;;;;21.32;32.25;95710.94;10514318;28;1925;-52
2022/04/03 15:12:25;;;;;;;;;;;;;;;21.28;32.15;95708.06;10511884;28;1847;-53
2022/04/03 15:17:25;;;;;;;;;;;;;;;21.26;32.77;95712.84;10491943;28;1828;-52
2022/04/03 15:22:26;;;;;;;;;;;;;;;21.29;32.64;95714.13;10494751;28;2189;-53
2022/04/03 15:27:26;;;;;;;;;;;;;;;21.29;32.20;95722.03;10495586;28;1979;-52
2022/04/03 15:32:27;;;;;;;;;;;;;;;21.28;32.56;95729.16;10511036;28;1843;-51
2022/04/03 15:37:30;;;;;;;;;;;;;;;21.29;32.40;95728.09;10492386;28;1842;-51
2022/04/03 15:42:30;;;;;;;;;;;;;;;21.31;32.93;95738.38;10509560;28;1914;-53
2022/04/03 15:47:31;;;;;;;;;;;;;;;21.32;33.46;95729.38;10493702;28;1822;-54
2022/04/03 15:52:31;;;;;;;;;;;;;;;21.36;33.10;95740.94;10512783;28;1932;-47
2022/04/03 15:57:38;;;;;;;;;;;;;;;21.32;33.25;95739.94;10509861;28;1870;-48
2022/04/03 16:02:41;;;;;;;;;;;;;;;21.25;33.49;95737.63;10479337;28;1965;-48
2022/04/03 16:07:41;;;;;;;;;;;;;;;21.26;33.40;95736.56;10508157;28;1788;-48
2022/04/03 16:12:42;;;;;;;;;;;;;;;21.24;33.64;95743.97;10489987;28;1824;-49
2022/04/03 16:17:42;;;;;;;;;;;;;;;21.25;34.01;95744.72;10511063;28;1822;-54
2022/04/03 16:22:42;;;;;;;;;;;;;;;21.24;33.79;95743.97;10513970;28;1910;-46
2022/04/03 16:27:43;;;;;;;;;;;;;;;21.30;34.12;95745.50;10509714;28;1822;-54
2022/04/03 16:32:44;;;;;;;;;;;;;;;21.26;34.28;95747.09;10492690;28;1781;-50
2022/04/03 16:37:44;;;;;;;;;;;;;;;21.27;34.52;95755.81;10495067;28;1956;-52
2022/04/03 16:42:45;;;;;;;;;;;;;;;21.25;34.41;95755.28;10512298;28;1918;-51
2022/04/03 16:47:45;;;;;;;;;;;;;;;21.25;34.96;95760.53;10501811;28;1888;-46
2022/04/03 16:52:46;;;;;;;;;;;;;;;21.24;34.57;95765.06;10491632;28;1953;-48
2022/04/03 16:57:46;;;;;;;;;;;;;;;21.21;34.49;95765.59;10488239;28;1794;-51
2022/04/03 17:02:46;;;;;;;;;;;;;;;21.20;34.73;95768.50;10486354;28;1980;-48
2022/04/03 17:07:46;;;;;;;;;;;;;;;21.21;34.21;95770.06;10490025;28;1939;-46
2022/04/03 17:12:48;;;;;;;;;;;;;;;21.21;33.95;95770.88;10484715;28;1890;-49
2022/04/03 17:17:48;;;;;;;;;;;;;;;21.23;33.65;95778.50;10491677;28;1844;-45
2022/04/03 17:22:48;;;;;;;;;;;;;;;21.23;33.64;95786.41;10493234;28;2074;-52
2022/04/03 17:27:49;;;;;;;;;;;;;;;21.27;33.92;95795.34;10488654;28;1908;-47
2022/04/03 17:32:49;;;;;;;;;;;;;;;21.24;33.55;95801.97;10486001;28;1944;-55
2022/04/03 17:37:50;;;;;;;;;;;;;;;21.25;33.33;95803.53;10507813;28;2256;-51
2022/04/03 17:42:51;;;;;;;;;;;;;;;21.27;33.17;95805.91;10508862;28;1940;-49
2022/04/03 17:47:51;;;;;;;;;;;;;;;21.25;32.84;95814.06;10495111;28;2038;-48
2022/04/03 17:52:52;;;;;;;;;;;;;;;21.27;32.80;95811.19;10490530;28;1905;-49
2022/04/03 17:57:53;;;;;;;;;;;;;;;21.29;32.85;95815.09;10514583;28;1987;-45
2022/04/03 18:02:54;;;;;;;;;;;;;;;21.29;32.85;95827.50;10518201;28;1918;-50
2022/04/03 18:07:54;;;;;;;;;;;;;;;21.33;32.52;95828.53;10500987;28;1755;-46
2022/04/03 18:12:54;;;;;;;;;;;;;;;21.30;32.57;95827.22;10497469;28;1857;-46
2022/04/03 18:17:54;;;;;;;;;;;;;;;21.33;32.58;95831.94;10498543;28;2089;-45
2022/04/03 18:22:55;;;;;;;;;;;;;;;21.33;32.46;95833.81;10494589;28;1994;-47
2022/04/03 18:27:55;;;;;;;;;;;;;;;21.34;32.29;95836.16;10498677;28;2159;-49
2022/04/03 18:32:56;;;;;;;;;;;;;;;21.36;32.53;95846.41;10521502;28;1915;-48
2022/04/03 18:37:57;;;;;;;;;;;;;;;21.35;32.38;95847.50;10500463;28;1872;-50
2022/04/03 18:42:59;;;;;;;;;;;;;;;21.34;32.05;95854.63;10501854;28;1926;-46
2022/04/03 18:47:59;;;;;;;;;;;;;;;21.35;32.11;95860.69;10496156;28;1900;-45
2022/04/03 18:53:00;;;;;;;;;;;;;;;21.39;32.06;95862.47;10515084;28;1844;-47
2022/04/03 18:58:00;;;;;;;;;;;;;;;21.37;31.74;95872.50;10510091;28;1774;-44
2022/04/03 19:03:02;;;;;;;;;;;;;;;21.37;31.73;95871.75;10513652;28;1925;-49
2022/04/03 19:08:02;;;;;;;;;;;;;;;21.37;31.63;95882.28;10510343;28;1916;-47
2022/04/03 19:13:04;;;;;;;;;;;;;;;21.37;31.34;95884.91;10512619;28;1975;-48
2022/04/03 19:18:04;;;;;;;;;;;;;;;21.35;31.49;95879.91;10521067;28;2045;-48
2022/04/03 19:23:05;;;;;;;;;;;;;;;21.38;31.33;95884.63;10512803;28;2009;-46
2022/04/03 19:28:07;;;;;;;;;;;;;;;21.41;31.57;95885.94;10497635;28;1692;-45
2022/04/03 19:33:08;;;;;;;;;;;;;;;21.42;31.65;95882.22;10493348;28;2577;-44
2022/04/03 19:38:08;;;;;;;;;;;;;;;21.43;31.63;95887.22;10492174;28;1861;-51
2022/04/03 19:43:09;;;;;;;;;;;;;;;21.41;31.56;95881.44;10513730;28;2058;-47
2022/04/03 19:48:09;;;;;;;;;;;;;;;21.42;31.62;95883.03;10496647;28;2010;-48
2022/04/03 19:53:10;;;;;;;;;;;;;;;21.39;31.72;95882.78;10513206;28;1809;-50
2022/04/03 19:58:10;;;;;;;;;;;;;;;21.37;29.33;95890.19;10510105;28;1864;-51
2022/04/03 20:03:11;;;;;;;;;;;;;;;21.26;30.76;95891.31;10513680;28;1902;-53
2022/04/03 20:08:11;;;;;;;;;;;;;;;21.23;30.68;95897.13;10514132;28;1942;-50
2022/04/03 20:13:11;;;;;;;;;;;;;;;21.20;30.42;95897.69;10507250;28;2106;-50
2022/04/03 20:18:13;;;;;;;;;;;;;;;21.20;30.28;95897.69;10514442;28;2006;-50
2022/04/03 20:23:15;;;;;;;;;;;;;;;21.17;30.17;95895.59;10489656;28;1905;-52
2022/04/03 20:28:16;;;;;;;;;;;;;;;21.14;30.06;95896.94;10517512;28;1933;-50
2022/04/03 20:33:17;;;;;;;;;;;;;;;21.11;30.15;95892.19;10498085;28;1841;-47
2022/04/03 20:38:21;;;;;;;;;;;;;;;21.08;30.17;95894.59;10480134;28;1837;-49
2022/04/03 20:43:23;;;;;;;;;;;;;;;21.04;30.41;95892.50;10514419;28;1910;-49
2022/04/03 20:48:23;;;;;;;;;;;;;;;21.01;30.33;95903.56;10516818;28;1997;-47
2022/04/03 20:53:24;;;;;;;;;;;;;;;21.00;30.04;95899.34;10507239;28;2042;-50
2022/04/03 20:58:25;;;;;;;;;;;;;;;20.95;30.10;95904.66;10488037;28;1813;-52
2022/04/03 21:03:25;;;;;;;;;;;;;;;20.97;29.65;95899.09;10500312;28;1914;-50
2022/04/03 21:08:26;;;;;;;;;;;;;;;20.95;30.03;95903.88;10504281;28;1945;-53
2022/04/03 21:13:26;;;;;;;;;;;;;;;20.89;29.79;95911.03;10506768;28;1915;-48
2022/04/03 21:18:26;;;;;;;;;;;;;;;20.82;29.89;95910.50;10487079;28;1865;-49
2022/04/03 21:23:27;;;;;;;;;;;;;;;20.77;29.88;95915.78;10488925;28;1906;-47
2022/04/03 21:28:28;;;;;;;;;;;;;;;20.76;29.61;95908.16;10508633;28;1941;-49
2022/04/03 21:33:31;;;;;;;;;;;;;;;20.73;29.60;95896.31;10485755;28;1936;-48
2022/04/03 21:38:32;;;;;;;;;;;;;;;20.71;29.29;95903.69;10509802;28;1912;-49
2022/04/03 21:43:33;;;;;;;;;;;;;;;20.71;29.29;95908.97;10509489;28;2030;-47
2022/04/03 21:48:33;;;;;;;;;;;;;;;20.72;29.17;95894.75;10513811;28;1830;-47
2022/04/03 21:53:36;;;;;;;;;;;;;;;20.70;29.13;95907.41;10504920;28;1837;-50
2022/04/03 21:58:36;;;;;;;;;;;;;;;20.69;28.88;95905.81;10489611;28;1729;-46
2022/04/03 22:03:38;;;;;;;;;;;;;;;20.71;28.96;95903.69;10511629;28;1946;-46
2022/04/03 22:08:38;;;;;;;;;;;;;;;20.76;28.69;95902.91;10510381;28;1782;-50
2022/04/03 22:13:41;;;;;;;;;;;;;;;20.77;28.63;95910.53;10507023;28;1825;-46
2022/04/03 22:18:41;;;;;;;;;;;;;;;20.76;28.55;95901.06;10513596;28;1798;-48
2022/04/03 22:23:41;;;;;;;;;;;;;;;20.78;28.38;95906.84;10492036;28;1914;-50
2022/04/03 22:28:42;;;;;;;;;;;;;;;20.80;28.32;95909.19;10490213;28;1845;-47
2022/04/03 22:33:43;;;;;;;;;;;;;;;20.84;28.26;95913.66;10513769;28;1818;-51
2022/04/03 22:38:44;;;;;;;;;;;;;;;20.81;28.18;95906.28;10492692;28;1769;-48
2022/04/03 22:43:45;;;;;;;;;;;;;;;20.79;28.00;95905.00;10518281;28;1970;-49
2022/04/03 22:48:47;;;;;;;;;;;;;;;20.87;28.12;95913.13;10520894;28;1848;-50
2022/04/03 22:53:47;;;;;;;;;;;;;;;20.84;27.96;95908.41;10517859;28;1717;-51
2022/04/03 22:58:49;;;;;;;;;;;;;;;20.85;27.81;95915.25;10518233;28;1812;-47
2022/04/03 23:03:49;;;;;;;;;;;;;;;20.85;27.78;95904.72;10492670;28;1906;-47
2022/04/03 23:08:50;;;;;;;;;;;;;;;20.87;27.66;95907.88;10490186;28;1939;-47
2022/04/03 23:13:50;;;;;;;;;;;;;;;20.87;27.70;95909.69;10512728;28;1835;-48
2022/04/03 23:18:51;;;;;;;;;;;;;;;20.86;27.72;95898.38;10514054;28;2000;-50
2022/04/03 23:23:52;;;;;;;;;;;;;;;20.90;27.49;95896.75;10503567;28;1921;-46
2022/04/03 23:28:52;;;;;;;;;;;;;;;20.89;27.39;95895.22;10516407;28;2017;-48
2022/04/03 23:33:52;;;;;;;;;;;;;;;20.87;27.49;95896.53;10517428;28;1852;-46
2022/04/03 23:38:53;;;;;;;;;;;;;;;20.90;27.34;95888.88;10517257;28;1820;-50
2022/04/03 23:43:53;;;;;;;;;;;;;;;20.92;27.22;95884.09;10514683;28;1973;-49
2022/04/03 23:48:53;;;;;;;;;;;;;;;20.89;27.44;95881.25;10523353;28;1741;-47
2022/04/03 23:53:55;;;;;;;;;;;;;;;20.91;27.34;95887.81;10497540;28;1798;-47
2022/04/03 23:58:55;;;;;;;;;;;;;;;20.94;27.31;95882.00;10493839;28;1808;-50
